createdAt,value
2019-05-11T00:01:24.602Z,1.30
2019-05-11T00:03:53.345Z,1.77
2019-05-11T00:06:22.027Z,1.40
2019-05-11T00:08:50.680Z,1.63
2019-05-11T00:11:19.347Z,1.30
2019-05-11T00:13:47.986Z,1.60
2019-05-11T00:16:19.059Z,1.80
2019-05-11T00:18:47.039Z,1.40
2019-05-11T00:21:15.705Z,1.70
2019-05-11T00:23:44.341Z,1.50
2019-05-11T00:26:13.006Z,1.57
2019-05-11T00:28:41.650Z,1.40
2019-05-11T00:31:10.315Z,1.70
2019-05-11T00:33:38.942Z,1.63
2019-05-11T00:36:07.600Z,1.47
2019-05-11T00:38:36.278Z,1.50
2019-05-11T00:41:04.974Z,1.60
2019-05-11T00:43:33.659Z,1.50
2019-05-11T00:46:02.294Z,1.63
2019-05-11T00:48:30.951Z,1.50
2019-05-11T00:50:59.719Z,1.50
2019-05-11T00:53:28.449Z,1.70
2019-05-11T00:55:57.102Z,1.80
2019-05-11T00:58:25.835Z,1.73
2019-05-11T01:00:54.720Z,1.40
2019-05-11T01:03:23.612Z,1.70
2019-05-11T01:05:53.046Z,1.60
2019-05-11T01:08:21.726Z,1.80
2019-05-11T01:10:50.407Z,1.63
2019-05-11T01:13:19.063Z,1.60
2019-05-11T01:15:47.718Z,1.60
2019-05-11T01:18:16.368Z,1.77
2019-05-11T01:20:45.003Z,1.87
2019-05-11T01:23:13.636Z,1.50
2019-05-11T01:25:42.285Z,1.60
2019-05-11T01:28:10.928Z,1.63
2019-05-11T01:30:39.571Z,1.63
2019-05-11T01:33:08.275Z,1.77
2019-05-11T01:35:36.979Z,1.60
2019-05-11T01:38:05.640Z,1.50
2019-05-11T01:40:34.968Z,1.60
2019-05-11T01:43:03.595Z,1.87
2019-05-11T01:45:32.268Z,1.60
2019-05-11T01:48:00.925Z,1.73
2019-05-11T01:50:29.576Z,2.07
2019-05-11T01:52:58.917Z,1.50
2019-05-11T01:55:27.567Z,1.67
2019-05-11T01:57:56.214Z,1.53
2019-05-11T02:00:24.903Z,1.87
2019-05-11T02:02:54.429Z,1.77
2019-05-11T02:05:29.634Z,1.70
2019-05-11T02:07:58.924Z,1.70
2019-05-11T02:10:27.631Z,1.57
2019-05-11T02:12:56.327Z,1.77
2019-05-11T02:15:24.971Z,1.70
2019-05-11T02:17:53.634Z,1.80
2019-05-11T02:20:22.284Z,1.80
2019-05-11T02:22:50.964Z,1.70
2019-05-11T02:25:19.612Z,2.53
2019-05-11T02:27:48.259Z,1.60
2019-05-11T02:30:16.902Z,1.50
2019-05-11T02:32:45.592Z,1.50
2019-05-11T02:35:15.393Z,1.77
2019-05-11T02:37:44.036Z,1.50
2019-05-11T02:40:12.731Z,1.40
2019-05-11T02:42:41.721Z,1.70
2019-05-11T02:45:10.367Z,1.63
2019-05-11T02:47:39.038Z,1.50
2019-05-11T02:50:07.684Z,1.53
2019-05-11T02:52:36.358Z,1.50
2019-05-11T02:55:05.856Z,1.60
2019-05-11T02:57:34.528Z,1.50
2019-05-11T03:00:03.286Z,1.80
2019-05-11T03:02:32.010Z,1.70
2019-05-11T03:05:00.675Z,1.40
2019-05-11T03:07:29.355Z,1.57
2019-05-11T03:09:58.015Z,1.60
2019-05-11T03:12:27.300Z,1.40
2019-05-11T03:14:56.171Z,1.40
2019-05-11T03:17:29.472Z,1.77
2019-05-11T03:19:58.116Z,1.60
2019-05-11T03:22:26.764Z,1.50
2019-05-11T03:24:55.524Z,1.77
2019-05-11T03:27:24.172Z,1.47
2019-05-11T03:29:52.830Z,1.30
2019-05-11T03:32:21.480Z,1.63
2019-05-11T03:34:50.239Z,1.50
2019-05-11T03:37:19.574Z,1.50
2019-05-11T03:39:49.005Z,1.40
2019-05-11T03:42:17.678Z,1.37
2019-05-11T03:44:46.315Z,1.40
2019-05-11T03:47:15.047Z,1.73
2019-05-11T03:49:43.706Z,1.50
2019-05-11T03:52:12.352Z,1.37
2019-05-11T03:54:41.019Z,1.30
2019-05-11T03:57:09.680Z,1.50
2019-05-11T03:59:38.305Z,1.37
2019-05-11T04:02:06.950Z,1.40
2019-05-11T04:04:35.599Z,1.50
2019-05-11T04:07:04.254Z,1.47
2019-05-11T04:09:32.904Z,1.60
2019-05-11T04:12:01.547Z,1.57
2019-05-11T04:14:30.232Z,1.40
2019-05-11T04:16:58.916Z,1.63
2019-05-11T04:19:27.553Z,1.50
2019-05-11T04:21:56.225Z,1.20
2019-05-11T04:24:24.890Z,1.27
2019-05-11T04:26:53.535Z,1.27
2019-05-11T04:29:22.221Z,1.50
2019-05-11T04:31:50.926Z,1.63
2019-05-11T04:34:19.587Z,1.70
2019-05-11T04:36:48.273Z,1.40
2019-05-11T04:39:16.937Z,1.10
2019-05-11T04:41:45.635Z,1.47
2019-05-11T04:44:14.292Z,1.27
2019-05-11T04:46:42.927Z,1.53
2019-05-11T04:49:11.579Z,1.30
2019-05-11T04:51:40.227Z,1.30
2019-05-11T04:54:08.874Z,1.33
2019-05-11T04:56:37.522Z,1.30
2019-05-11T04:59:06.159Z,1.17
2019-05-11T05:01:35.499Z,1.40
2019-05-11T05:04:13.956Z,1.17
2019-05-11T05:06:34.523Z,1.40
2019-05-11T05:09:05.128Z,1.53
2019-05-11T05:11:36.809Z,1.17
2019-05-11T05:14:08.221Z,1.03
2019-05-11T05:16:34.646Z,1.03
2019-05-11T05:19:03.315Z,1.20
2019-05-11T05:21:31.952Z,1.20
2019-05-11T05:24:00.586Z,1.10
2019-05-11T05:26:29.443Z,1.37
2019-05-11T05:28:58.235Z,1.60
2019-05-11T05:31:27.044Z,1.30
2019-05-11T05:33:55.684Z,1.00
2019-05-11T05:36:24.319Z,1.10
2019-05-11T05:38:52.980Z,1.37
2019-05-11T05:41:21.663Z,1.47
2019-05-11T05:43:50.342Z,1.20
2019-05-11T05:46:19.000Z,1.30
2019-05-11T05:48:47.820Z,1.37
2019-05-11T05:51:16.471Z,1.03
2019-05-11T05:53:45.296Z,1.17
2019-05-11T05:56:14.021Z,1.13
2019-05-11T05:58:42.711Z,1.33
2019-05-11T06:01:11.354Z,1.20
2019-05-11T06:03:40.012Z,1.27
2019-05-11T06:06:08.723Z,1.40
2019-05-11T06:08:37.383Z,1.40
2019-05-11T06:11:06.025Z,1.20
2019-05-11T06:13:44.845Z,1.10
2019-05-11T06:16:05.062Z,1.20
2019-05-11T06:18:33.736Z,0.97
2019-05-11T06:21:02.391Z,1.30
2019-05-11T06:23:31.050Z,1.30
2019-05-11T06:25:59.692Z,1.30
2019-05-11T06:28:28.334Z,1.27
2019-05-11T06:30:57.419Z,1.17
2019-05-11T06:33:26.066Z,1.37
2019-05-11T06:35:54.697Z,1.10
2019-05-11T06:38:23.371Z,1.23
2019-05-11T06:40:52.034Z,1.27
2019-05-11T06:43:20.665Z,1.23
2019-05-11T06:45:49.406Z,1.50
2019-05-11T06:48:30.187Z,1.20
2019-05-11T06:50:59.162Z,1.03
2019-05-11T06:53:27.810Z,1.20
2019-05-11T06:55:56.447Z,1.23
2019-05-11T06:58:25.115Z,1.20
2019-05-11T07:00:53.776Z,1.30
2019-05-11T07:03:22.461Z,1.20
2019-05-11T07:05:51.140Z,1.37
2019-05-11T07:08:19.852Z,1.07
2019-05-11T07:10:48.523Z,1.40
2019-05-11T07:13:17.183Z,1.00
2019-05-11T07:15:45.827Z,1.30
2019-05-11T07:18:14.506Z,1.20
2019-05-11T07:20:50.445Z,1.33
2019-05-11T07:23:13.578Z,1.70
2019-05-11T07:25:42.253Z,2.43
2019-05-11T07:28:10.916Z,2.83
2019-05-11T07:30:39.648Z,3.60
2019-05-11T07:33:08.324Z,3.93
2019-05-11T07:35:38.473Z,4.00
2019-05-11T07:38:08.335Z,3.80
2019-05-11T07:40:38.494Z,3.27
2019-05-11T07:43:09.867Z,3.50
2019-05-11T07:45:38.716Z,3.40
2019-05-11T07:48:08.323Z,3.43
2019-05-11T07:50:38.742Z,3.20
2019-05-11T07:53:08.192Z,2.80
2019-05-11T07:55:38.548Z,3.43
2019-05-11T07:58:08.107Z,3.03
2019-05-11T08:00:39.760Z,3.20
2019-05-11T08:03:09.004Z,2.83
2019-05-11T08:05:38.538Z,3.00
2019-05-11T08:08:08.711Z,2.57
2019-05-11T08:10:39.119Z,3.17
2019-05-11T08:13:09.175Z,2.87
2019-05-11T08:15:38.359Z,3.37
2019-05-11T08:18:08.540Z,3.40
2019-05-11T08:20:38.507Z,2.70
2019-05-11T08:23:09.034Z,2.80
2019-05-11T08:25:38.275Z,2.80
2019-05-11T08:28:11.545Z,2.40
2019-05-11T08:30:38.163Z,2.77
2019-05-11T08:33:08.689Z,3.77
2019-05-11T08:35:38.978Z,4.13
2019-05-11T08:38:08.897Z,4.37
2019-05-11T08:40:37.999Z,3.90
2019-05-11T08:43:08.760Z,4.73
2019-05-11T08:45:39.289Z,4.23
2019-05-11T08:48:08.232Z,4.70
2019-05-11T08:50:38.307Z,4.03
2019-05-11T08:53:08.595Z,3.40
2019-05-11T08:55:38.160Z,3.93
2019-05-11T08:58:08.007Z,4.20
2019-05-11T09:00:38.894Z,4.07
2019-05-11T09:03:08.519Z,4.10
2019-05-11T09:05:38.470Z,3.57
2019-05-11T09:08:08.311Z,5.07
2019-05-11T09:10:39.701Z,3.83
2019-05-11T09:13:08.085Z,3.70
2019-05-11T09:15:40.491Z,3.40
2019-05-11T09:18:08.397Z,4.30
2019-05-11T09:20:37.898Z,3.60
2019-05-11T09:23:08.263Z,4.33
2019-05-11T09:25:38.484Z,4.47
2019-05-11T09:28:08.569Z,3.80
2019-05-11T09:30:38.017Z,3.70
2019-05-11T09:33:08.657Z,3.60
2019-05-11T09:35:47.588Z,4.50
2019-05-11T09:38:08.047Z,3.63
2019-05-11T09:40:38.554Z,3.97
2019-05-11T09:43:08.507Z,3.67
2019-05-11T09:45:47.940Z,3.40
2019-05-11T09:48:08.638Z,3.17
2019-05-11T09:50:38.912Z,3.50
2019-05-11T09:53:08.607Z,3.97
2019-05-11T09:55:38.900Z,3.60
2019-05-11T09:58:08.526Z,3.00
2019-05-11T10:00:38.833Z,3.40
2019-05-11T10:03:08.364Z,3.27
2019-05-11T10:05:38.331Z,3.40
2019-05-11T10:08:07.985Z,2.87
2019-05-11T10:10:38.352Z,3.40
2019-05-11T10:13:08.104Z,3.37
2019-05-11T10:15:38.488Z,3.37
2019-05-11T10:18:08.223Z,3.07
2019-05-11T10:20:39.026Z,3.10
2019-05-11T10:23:08.340Z,2.63
2019-05-11T10:25:39.115Z,3.07
2019-05-11T10:28:08.770Z,3.00
2019-05-11T10:30:38.630Z,2.80
2019-05-11T10:33:08.278Z,2.73
2019-05-11T10:35:37.963Z,3.00
2019-05-11T10:38:09.006Z,3.13
2019-05-11T10:40:38.724Z,2.53
2019-05-11T10:43:08.100Z,2.37
2019-05-11T10:45:37.904Z,2.73
2019-05-11T10:48:08.831Z,2.53
2019-05-11T10:50:38.044Z,2.90
2019-05-11T10:53:08.086Z,2.70
2019-05-11T10:55:38.688Z,3.00
2019-05-11T10:58:08.678Z,2.53
2019-05-11T11:00:38.792Z,2.90
2019-05-11T11:03:08.577Z,2.37
2019-05-11T11:05:38.599Z,2.77
2019-05-11T11:08:08.419Z,2.80
2019-05-11T11:10:38.060Z,3.00
2019-05-11T11:13:08.338Z,2.70
2019-05-11T11:15:38.095Z,2.80
2019-05-11T11:18:08.556Z,2.77
2019-05-11T11:20:38.412Z,3.07
2019-05-11T11:23:08.829Z,2.70
2019-05-11T11:25:37.816Z,2.40
2019-05-11T11:28:08.476Z,2.90
2019-05-11T11:30:37.848Z,2.27
2019-05-11T11:33:07.947Z,2.67
2019-05-11T11:35:38.598Z,2.60
2019-05-11T11:38:08.664Z,2.63
2019-05-11T11:40:38.686Z,2.80
2019-05-11T11:43:08.640Z,2.97
2019-05-11T11:45:38.085Z,2.43
2019-05-11T11:48:08.720Z,2.43
2019-05-11T11:50:37.919Z,2.77
2019-05-11T11:53:08.351Z,2.37
2019-05-11T11:55:39.017Z,2.73
2019-05-11T11:58:08.417Z,2.53
2019-05-11T12:00:39.043Z,2.70
2019-05-11T12:03:08.250Z,2.77
2019-05-11T12:05:38.720Z,2.70
2019-05-11T12:08:08.357Z,2.60
2019-05-11T12:10:37.911Z,2.50
2019-05-11T12:13:08.713Z,2.60
2019-05-11T12:15:38.804Z,2.30
2019-05-11T12:18:08.355Z,2.50
2019-05-11T12:20:38.994Z,2.60
2019-05-11T12:23:08.763Z,2.27
2019-05-11T12:25:40.490Z,2.00
2019-05-11T12:28:08.214Z,2.40
2019-05-11T12:30:37.728Z,2.30
2019-05-11T12:33:08.292Z,2.20
2019-05-11T12:35:37.775Z,2.10
2019-05-11T12:38:07.844Z,2.27
2019-05-11T12:40:38.855Z,2.60
2019-05-11T12:43:08.172Z,2.10
2019-05-11T12:45:37.626Z,2.10
2019-05-11T12:48:09.029Z,2.30
2019-05-11T12:50:37.852Z,2.20
2019-05-11T12:53:08.034Z,1.93
2019-05-11T12:55:37.921Z,1.70
2019-05-11T12:58:08.639Z,1.87
2019-05-11T13:00:39.096Z,2.47
2019-05-11T13:03:08.207Z,1.80
2019-05-11T13:05:37.785Z,2.00
2019-05-11T13:08:08.047Z,1.80
2019-05-11T13:10:37.635Z,1.97
2019-05-11T13:13:08.988Z,1.90
2019-05-11T13:15:38.685Z,1.67
2019-05-11T13:18:08.356Z,1.70
2019-05-11T13:20:37.859Z,2.00
2019-05-11T13:23:08.036Z,1.67
2019-05-11T13:25:38.789Z,1.70
2019-05-11T13:28:08.517Z,1.53
2019-05-11T13:30:38.333Z,1.70
2019-05-11T13:33:08.557Z,1.47
2019-05-11T13:35:37.811Z,1.27
2019-05-11T13:38:08.767Z,1.77
2019-05-11T13:40:38.233Z,1.57
2019-05-11T13:43:08.312Z,1.60
2019-05-11T13:45:38.783Z,1.67
2019-05-11T13:48:08.431Z,1.90
2019-05-11T13:50:38.629Z,1.67
2019-05-11T13:53:07.962Z,1.27
2019-05-11T13:55:38.594Z,1.40
2019-05-11T13:58:08.262Z,1.60
2019-05-11T14:00:38.088Z,1.30
2019-05-11T14:03:09.019Z,1.53
2019-05-11T14:05:37.991Z,1.77
2019-05-11T14:08:08.099Z,1.53
2019-05-11T14:10:38.375Z,1.57
2019-05-11T14:13:08.778Z,1.70
2019-05-11T14:15:37.956Z,1.57
2019-05-11T14:18:09.474Z,1.53
2019-05-11T14:20:37.827Z,1.30
2019-05-11T14:23:07.760Z,1.53
2019-05-11T14:25:38.137Z,1.50
2019-05-11T14:28:08.796Z,1.30
2019-05-11T14:30:38.549Z,1.50
2019-05-11T14:33:08.697Z,1.57
2019-05-11T14:35:38.566Z,1.50
2019-05-11T14:38:08.234Z,1.33
2019-05-11T14:40:38.773Z,1.57
2019-05-11T14:43:08.440Z,1.50
2019-05-11T14:45:38.098Z,1.30
2019-05-11T14:48:22.532Z,1.40
2019-05-11T14:50:38.666Z,1.47
2019-05-11T14:53:08.652Z,1.10
2019-05-11T14:55:38.234Z,1.40
2019-05-11T14:58:08.274Z,1.40
2019-05-11T15:00:39.162Z,1.43
2019-05-11T15:03:07.996Z,1.20
2019-05-11T15:05:37.911Z,1.40
2019-05-11T15:08:08.747Z,1.13
2019-05-11T15:10:38.286Z,1.20
2019-05-11T15:13:08.148Z,1.50
2019-05-11T15:15:39.488Z,1.40
2019-05-11T15:18:08.484Z,1.20
2019-05-11T15:20:38.787Z,1.50
2019-05-11T15:23:08.895Z,1.27
2019-05-11T15:25:38.373Z,1.50
2019-05-11T15:28:08.933Z,1.30
2019-05-11T15:30:38.090Z,1.10
2019-05-11T15:33:07.736Z,1.33
2019-05-11T15:35:37.749Z,1.30
2019-05-11T15:38:08.718Z,1.30
2019-05-11T15:40:38.299Z,1.40
2019-05-11T15:43:08.741Z,1.10
2019-05-11T15:45:38.138Z,1.30
2019-05-11T15:48:08.490Z,1.47
2019-05-11T15:50:39.917Z,0.97
2019-05-11T15:53:08.757Z,1.40
2019-05-11T15:55:39.359Z,1.23
2019-05-11T15:58:08.198Z,1.17
2019-05-11T16:00:39.689Z,1.23
2019-05-11T16:03:08.169Z,1.27
2019-05-11T16:05:37.448Z,1.60
2019-05-11T16:08:08.294Z,1.50
2019-05-11T16:10:38.450Z,1.37
2019-05-11T16:13:09.108Z,1.30
2019-05-11T16:15:38.402Z,1.40
2019-05-11T16:18:08.368Z,1.37
2019-05-11T16:20:37.742Z,1.30
2019-05-11T16:23:06.396Z,1.27
2019-05-11T16:25:35.046Z,1.20
2019-05-11T16:28:03.702Z,1.37
2019-05-11T16:30:32.355Z,1.10
2019-05-11T16:33:01.092Z,1.43
2019-05-11T16:35:29.819Z,1.40
2019-05-11T16:37:59.111Z,1.20
2019-05-11T16:40:29.581Z,1.30
2019-05-11T16:42:58.937Z,1.03
2019-05-11T16:45:28.281Z,1.00
2019-05-11T16:47:58.867Z,0.93
2019-05-11T16:50:28.304Z,1.20
2019-05-11T16:52:58.533Z,1.20
2019-05-11T16:55:27.571Z,1.00
2019-05-11T16:57:58.613Z,0.80
2019-05-11T17:00:26.607Z,1.17
2019-05-11T17:02:57.541Z,1.13
2019-05-11T17:05:27.358Z,1.30
2019-05-11T17:07:55.998Z,1.10
2019-05-11T17:10:24.651Z,1.23
2019-05-11T17:12:53.312Z,1.00
2019-05-11T17:15:21.994Z,1.00
2019-05-11T17:17:50.666Z,0.90
2019-05-11T17:20:19.443Z,1.07
2019-05-11T17:22:48.653Z,1.23
2019-05-11T17:25:19.393Z,1.23
2019-05-11T17:27:48.810Z,1.30
2019-05-11T17:30:19.195Z,1.10
2019-05-11T17:32:49.486Z,1.10
2019-05-11T17:35:18.775Z,1.10
2019-05-11T17:37:48.503Z,1.13
2019-05-11T17:40:20.540Z,1.17
2019-05-11T17:42:48.390Z,1.30
2019-05-11T17:45:18.953Z,1.30
2019-05-11T17:47:47.954Z,0.97
2019-05-11T17:50:18.901Z,1.33
2019-05-11T17:52:47.924Z,1.03
2019-05-11T17:55:18.551Z,1.23
2019-05-11T17:57:49.692Z,1.10
2019-05-11T18:00:20.078Z,1.00
2019-05-11T18:02:49.184Z,1.40
2019-05-11T18:05:18.154Z,1.23
2019-05-11T18:07:47.652Z,1.17
2019-05-11T18:10:18.193Z,0.90
2019-05-11T18:12:48.604Z,1.20
2019-05-11T18:15:18.597Z,1.10
2019-05-11T18:17:48.400Z,1.03
2019-05-11T18:20:21.413Z,1.00
2019-05-11T18:22:49.080Z,1.30
2019-05-11T18:25:18.796Z,1.13
2019-05-11T18:27:48.204Z,1.00
2019-05-11T18:30:17.201Z,1.30
2019-05-11T18:32:48.584Z,1.00
2019-05-11T18:35:19.095Z,1.20
2019-05-11T18:37:47.818Z,1.00
2019-05-11T18:40:18.704Z,1.00
2019-05-11T18:42:48.742Z,1.13
2019-05-11T18:45:18.870Z,1.07
2019-05-11T18:47:49.027Z,0.97
2019-05-11T18:50:29.742Z,0.90
2019-05-11T18:52:49.386Z,1.30
2019-05-11T18:55:19.048Z,1.00
2019-05-11T18:57:49.186Z,1.17
2019-05-11T19:00:18.903Z,1.00
2019-05-11T19:02:49.511Z,1.23
2019-05-11T19:05:18.302Z,1.60
2019-05-11T19:07:48.202Z,1.10
2019-05-11T19:10:17.076Z,1.10
2019-05-11T19:12:48.488Z,1.50
2019-05-11T19:15:18.413Z,1.13
2019-05-11T19:17:48.785Z,1.13
2019-05-11T19:20:17.881Z,1.30
2019-05-11T19:22:47.320Z,1.10
2019-05-11T19:25:18.184Z,1.23
2019-05-11T19:27:50.247Z,1.13
2019-05-11T19:30:18.451Z,1.27
2019-05-11T19:32:48.667Z,1.07
2019-05-11T19:35:20.908Z,1.20
2019-05-11T19:37:48.703Z,0.97
2019-05-11T19:40:17.804Z,1.20
2019-05-11T19:42:58.699Z,1.07
2019-05-11T19:45:29.077Z,1.07
2019-05-11T19:47:57.803Z,1.10
2019-05-11T19:50:27.264Z,1.37
2019-05-11T19:52:57.883Z,1.13
2019-05-11T19:55:28.362Z,1.70
2019-05-11T19:57:56.703Z,1.20
2019-05-11T20:00:25.672Z,1.10
2019-05-11T20:02:54.332Z,1.40
2019-05-11T20:05:23.436Z,1.20
2019-05-11T20:07:52.095Z,1.30
2019-05-11T20:10:20.748Z,0.93
2019-05-11T20:12:49.411Z,1.00
2019-05-11T20:15:18.996Z,1.00
2019-05-11T20:17:48.837Z,0.90
2019-05-11T20:20:18.626Z,1.50
2019-05-11T20:22:48.516Z,1.07
2019-05-11T20:25:18.835Z,1.10
2019-05-11T20:27:48.586Z,1.07
2019-05-11T20:30:18.371Z,0.80
2019-05-11T20:32:48.437Z,1.20
2019-05-11T20:35:18.051Z,1.33
2019-05-11T20:37:46.735Z,1.00
2019-05-11T20:40:15.397Z,0.80
2019-05-11T20:42:44.061Z,0.97
2019-05-11T20:45:12.729Z,0.97
2019-05-11T20:47:41.409Z,0.93
2019-05-11T20:50:10.045Z,0.80
2019-05-11T20:52:41.717Z,0.90
2019-05-11T20:55:10.395Z,0.80
2019-05-11T20:57:39.683Z,1.00
2019-05-11T21:00:09.267Z,0.80
2019-05-11T21:02:38.294Z,1.00
2019-05-11T21:05:09.204Z,1.07
2019-05-11T21:07:38.828Z,0.70
2019-05-11T21:10:08.769Z,1.00
2019-05-11T21:12:38.913Z,1.00
2019-05-11T21:15:07.918Z,0.80
2019-05-11T21:17:36.570Z,0.70
2019-05-11T21:20:06.120Z,1.00
2019-05-11T21:22:34.779Z,0.87
2019-05-11T21:25:03.724Z,0.80
2019-05-11T21:27:32.376Z,0.90
2019-05-11T21:30:01.065Z,1.27
2019-05-11T21:32:29.760Z,0.83
2019-05-11T21:35:00.984Z,0.80
2019-05-11T21:37:28.755Z,0.90
2019-05-11T21:39:57.883Z,0.80
2019-05-11T21:42:27.954Z,0.90
2019-05-11T21:44:58.095Z,1.03
2019-05-11T21:47:28.989Z,1.03
2019-05-11T21:49:57.767Z,1.13
2019-05-11T21:52:28.713Z,1.00
2019-05-11T21:54:58.347Z,1.00
2019-05-11T21:57:27.844Z,0.67
2019-05-11T22:00:00.463Z,0.83
2019-05-11T22:02:28.675Z,0.80
2019-05-11T22:04:58.657Z,0.90
2019-05-11T22:07:27.411Z,0.80
2019-05-11T22:09:59.836Z,0.80
2019-05-11T22:12:27.995Z,0.90
2019-05-11T22:14:57.988Z,0.80
2019-05-11T22:17:27.914Z,0.87
2019-05-11T22:19:58.517Z,1.10
2019-05-11T22:22:28.711Z,0.80
2019-05-11T22:24:58.410Z,0.83
2019-05-11T22:27:27.979Z,0.80
2019-05-11T22:29:58.816Z,0.87
2019-05-11T22:32:28.502Z,0.70
2019-05-11T22:34:58.251Z,1.10
2019-05-11T22:37:27.811Z,0.80
2019-05-11T22:39:57.805Z,0.77
2019-05-11T22:42:28.033Z,0.90
2019-05-11T22:44:57.061Z,0.80
2019-05-11T22:47:28.195Z,0.70
2019-05-11T22:49:57.912Z,0.97
2019-05-11T22:52:36.080Z,1.00
2019-05-11T22:54:58.903Z,0.80
2019-05-11T22:57:27.258Z,0.90
2019-05-11T22:59:55.922Z,1.10
2019-05-11T23:02:24.599Z,0.97
2019-05-11T23:04:53.231Z,0.80
2019-05-11T23:07:21.880Z,1.00
2019-05-11T23:09:50.529Z,0.80
2019-05-11T23:12:19.162Z,1.10
2019-05-11T23:14:50.799Z,0.90
2019-05-11T23:17:19.487Z,0.90
2019-05-11T23:19:48.685Z,0.70
2019-05-11T23:22:18.325Z,0.73
2019-05-11T23:24:48.112Z,0.90
2019-05-11T23:27:18.100Z,0.97
2019-05-11T23:29:47.728Z,1.00
2019-05-11T23:32:17.992Z,0.80
2019-05-11T23:34:48.177Z,0.80
2019-05-11T23:37:18.428Z,0.70
2019-05-11T23:39:48.005Z,0.80
2019-05-11T23:42:17.212Z,0.67
2019-05-11T23:44:47.938Z,0.90
2019-05-11T23:47:19.992Z,0.80
2019-05-11T23:49:47.961Z,0.90
2019-05-11T23:52:18.061Z,0.80
2019-05-11T23:54:48.472Z,0.80
2019-05-11T23:57:18.638Z,0.80
2019-05-11T23:59:47.801Z,0.60
